Time;durP1;ratioP1;P1;durP2;ratioP2;P2;SDS_P1;SDS_P2;PMS_P1;PMS_P2;Temp;Humidity;BMP_temperature;BMP_pressure;BME280_temperature;BME280_humidity;BME280_pressure;Samples;Min_cycle;Max_cycle;Signal;HPM_P1;HPM_P2
2021/03/09 00:04:52;;;;;;;12.77;7.30;;;;;;;;;;10427346;28;20609;-86
2021/03/09 00:09:54;;;;;;;14.10;8.27;;;;;;;;;;10437285;28;20246;-85
2021/03/09 00:14:56;;;;;;;15.93;9.00;;;;;;;;;;10430229;28;20211;-87
2021/03/09 00:20:08;;;;;;;13.70;8.30;;;;;;;;;;10434184;28;20878;-87
2021/03/09 00:25:10;;;;;;;15.03;8.80;;;;;;;;;;10427394;28;20246;-85
2021/03/09 00:30:13;;;;;;;16.60;9.53;;;;;;;;;;10429463;28;20211;-87
2021/03/09 00:35:16;;;;;;;16.40;9.60;;;;;;;;;;10433536;28;20216;-87
2021/03/09 00:40:18;;;;;;;16.90;9.67;;;;;;;;;;10435651;28;20204;-85
2021/03/09 00:45:20;;;;;;;16.43;9.83;;;;;;;;;;10428996;28;20615;-87
2021/03/09 00:50:30;;;;;;;19.13;10.80;;;;;;;;;;10435782;28;20226;-85
2021/03/09 00:55:33;;;;;;;19.07;11.00;;;;;;;;;;10430194;28;20245;-86
2021/03/09 01:05:52;;;;;;;21.77;12.23;;;;;;;;;;10382241;23;20244;-90
2021/03/09 01:10:53;;;;;;;20.53;12.07;;;;;;;;;;10349439;28;20224;-89
2021/03/09 01:15:55;;;;;;;22.80;12.60;;;;;;;;;;10354418;28;20580;-88
2021/03/09 01:20:57;;;;;;;24.03;13.60;;;;;;;;;;10351798;28;20225;-75
2021/03/09 01:25:58;;;;;;;23.53;12.90;;;;;;;;;;10333838;28;20244;-78
2021/03/09 01:30:59;;;;;;;21.57;12.73;;;;;;;;;;10329814;28;20305;-75
2021/03/09 01:36:02;;;;;;;25.07;14.47;;;;;;;;;;10358174;23;20241;-79
2021/03/09 01:41:04;;;;;;;26.70;14.40;;;;;;;;;;10332994;28;20224;-80
2021/03/09 01:46:07;;;;;;;23.40;14.77;;;;;;;;;;10338001;28;20382;-80
2021/03/09 01:51:16;;;;;;;25.40;14.93;;;;;;;;;;10338356;28;20280;-79
2021/03/09 01:56:18;;;;;;;25.47;15.50;;;;;;;;;;10338609;28;20566;-79
2021/03/09 02:01:20;;;;;;;24.07;14.33;;;;;;;;;;10332646;28;20256;-79
2021/03/09 02:06:23;;;;;;;26.90;14.30;;;;;;;;;;10338687;28;20247;-79
2021/03/09 02:11:33;;;;;;;23.70;14.07;;;;;;;;;;10331187;28;20209;-79
2021/03/09 02:16:38;;;;;;;25.23;14.73;;;;;;;;;;10336239;28;20720;-79
2021/03/09 02:22:03;;;;;;;25.57;14.30;;;;;;;;;;10335944;28;21260;-79
2021/03/09 02:27:27;;;;;;;23.90;14.33;;;;;;;;;;10339224;28;20259;-79
2021/03/09 02:32:31;;;;;;;25.67;14.50;;;;;;;;;;10329295;28;20224;-79
2021/03/09 02:37:34;;;;;;;24.20;14.73;;;;;;;;;;10336028;28;20212;-79
2021/03/09 02:42:41;;;;;;;24.80;14.27;;;;;;;;;;10334601;28;20307;-79
2021/03/09 02:47:45;;;;;;;23.67;14.53;;;;;;;;;;10335059;28;20217;-79
2021/03/09 02:52:49;;;;;;;25.47;15.17;;;;;;;;;;10333122;28;20326;-80
2021/03/09 02:57:54;;;;;;;25.27;14.23;;;;;;;;;;10334463;28;20224;-79
2021/03/09 03:03:00;;;;;;;26.23;15.37;;;;;;;;;;10329541;28;20884;-79
2021/03/09 03:08:14;;;;;;;25.30;14.40;;;;;;;;;;10329345;28;20300;-80
2021/03/09 03:13:16;;;;;;;27.87;15.17;;;;;;;;;;10330866;28;20839;-80
2021/03/09 03:18:20;;;;;;;23.00;13.50;;;;;;;;;;10332331;28;20348;-79
2021/03/09 03:23:23;;;;;;;25.23;15.20;;;;;;;;;;10328080;28;20232;-79
2021/03/09 03:28:25;;;;;;;26.17;15.57;;;;;;;;;;10333428;28;20225;-79
2021/03/09 03:33:28;;;;;;;28.67;15.27;;;;;;;;;;10333654;28;20629;-79
2021/03/09 03:38:31;;;;;;;26.03;15.27;;;;;;;;;;10333477;28;20760;-79
2021/03/09 03:43:33;;;;;;;26.47;16.37;;;;;;;;;;10328849;28;20249;-78
2021/03/09 03:48:37;;;;;;;28.97;16.73;;;;;;;;;;10329311;28;20584;-79
2021/03/09 03:53:42;;;;;;;30.43;16.83;;;;;;;;;;10332704;28;20221;-79
2021/03/09 03:58:45;;;;;;;30.70;17.83;;;;;;;;;;10336892;28;20244;-80
2021/03/09 04:03:50;;;;;;;29.53;17.33;;;;;;;;;;10333825;28;20605;-79
2021/03/09 04:08:52;;;;;;;28.90;17.17;;;;;;;;;;10328881;28;20223;-79
2021/03/09 04:13:54;;;;;;;31.23;18.00;;;;;;;;;;10328753;28;20205;-79
2021/03/09 04:18:57;;;;;;;32.83;18.83;;;;;;;;;;10341582;28;20227;-79
2021/03/09 04:24:00;;;;;;;32.10;18.80;;;;;;;;;;10336663;28;20237;-79
2021/03/09 04:29:04;;;;;;;33.23;19.73;;;;;;;;;;10337139;28;20693;-79
2021/03/09 04:34:07;;;;;;;34.87;20.33;;;;;;;;;;10341775;28;20255;-79
2021/03/09 04:39:09;;;;;;;33.33;19.93;;;;;;;;;;10337527;28;20214;-80
2021/03/09 04:44:11;;;;;;;33.80;19.07;;;;;;;;;;10340239;28;20744;-79
2021/03/09 04:49:16;;;;;;;32.13;19.20;;;;;;;;;;10339067;28;20213;-79
2021/03/09 04:54:18;;;;;;;35.37;19.43;;;;;;;;;;10339605;28;20216;-79
2021/03/09 04:59:20;;;;;;;32.47;19.83;;;;;;;;;;10337979;28;20220;-81
2021/03/09 05:04:32;;;;;;;35.67;19.67;;;;;;;;;;10345334;28;20243;-79
2021/03/09 05:09:33;;;;;;;33.87;19.47;;;;;;;;;;10371295;28;20403;-79
2021/03/09 05:14:52;;;;;;;33.37;19.97;;;;;;;;;;10361970;28;20213;-80
2021/03/09 05:19:54;;;;;;;35.37;20.53;;;;;;;;;;10343698;28;20231;-79
2021/03/09 05:24:57;;;;;;;34.57;20.33;;;;;;;;;;10360997;28;20264;-79
2021/03/09 05:30:08;;;;;;;35.40;21.17;;;;;;;;;;10371335;28;20258;-79
2021/03/09 05:35:17;;;;;;;34.53;20.90;;;;;;;;;;10380386;28;21252;-79
2021/03/09 05:40:20;;;;;;;34.97;21.33;;;;;;;;;;10337244;28;20231;-79
2021/03/09 05:45:39;;;;;;;34.90;20.00;;;;;;;;;;10341204;28;20252;-80
2021/03/09 05:50:42;;;;;;;33.80;20.30;;;;;;;;;;10348697;28;20984;-78
2021/03/09 05:55:51;;;;;;;34.63;20.17;;;;;;;;;;10335274;28;20217;-78
2021/03/09 06:00:54;;;;;;;34.33;20.03;;;;;;;;;;10330350;28;20217;-80
2021/03/09 06:11:36;;;;;;;23.00;13.73;;;;;;;;;;10325650;28;20231;-79
2021/03/09 06:16:38;;;;;;;15.23;9.67;;;;;;;;;;10329899;28;20312;-77
2021/03/09 06:21:52;;;;;;;14.50;7.67;;;;;;;;;;10331963;28;20239;-77
2021/03/09 06:27:03;;;;;;;11.50;4.93;;;;;;;;;;10332745;28;20236;-81
2021/03/09 06:32:05;;;;;;;9.17;4.10;;;;;;;;;;10323856;28;20209;-77
2021/03/09 06:37:10;;;;;;;6.87;3.20;;;;;;;;;;10343273;28;20267;-78
2021/03/09 06:42:15;;;;;;;9.03;3.33;;;;;;;;;;10340483;28;20232;-79
2021/03/09 06:47:45;;;;;;;6.57;2.80;;;;;;;;;;10330633;28;20251;-77
2021/03/09 06:52:58;;;;;;;9.13;2.97;;;;;;;;;;10335102;28;20217;-81
2021/03/09 06:58:04;;;;;;;6.73;2.97;;;;;;;;;;10332861;28;20626;-79
2021/03/09 07:03:26;;;;;;;8.10;2.60;;;;;;;;;;10327095;28;20717;-79
2021/03/09 07:08:29;;;;;;;7.67;2.37;;;;;;;;;;10328276;28;20311;-79
2021/03/09 07:13:31;;;;;;;4.63;2.33;;;;;;;;;;10331185;28;20229;-78
2021/03/09 07:18:33;;;;;;;6.87;1.90;;;;;;;;;;10319572;28;20219;-79
2021/03/09 07:23:37;;;;;;;7.47;2.33;;;;;;;;;;10327605;28;20609;-80
2021/03/09 07:28:41;;;;;;;5.07;2.10;;;;;;;;;;10328606;28;20223;-80
2021/03/09 07:33:44;;;;;;;5.70;2.10;;;;;;;;;;10322745;28;20392;-80
2021/03/09 07:38:50;;;;;;;8.30;2.07;;;;;;;;;;10332223;28;20221;-80
2021/03/09 07:43:55;;;;;;;3.58;1.80;;;;;;;;;;10328415;28;20470;-80
2021/03/09 07:49:00;;;;;;;5.47;1.77;;;;;;;;;;10331920;28;20221;-80
2021/03/09 07:54:14;;;;;;;4.27;1.40;;;;;;;;;;10334583;28;20209;-81
2021/03/09 07:59:18;;;;;;;2.10;1.40;;;;;;;;;;10344840;28;20642;-81
2021/03/09 08:04:19;;;;;;;6.00;1.70;;;;;;;;;;10330083;28;21463;-80
2021/03/09 08:09:34;;;;;;;6.07;1.70;;;;;;;;;;10352781;28;20598;-81
2021/03/09 08:14:37;;;;;;;5.10;1.50;;;;;;;;;;10335046;28;20205;-80
2021/03/09 08:19:40;;;;;;;3.07;1.67;;;;;;;;;;10350333;28;20311;-80
2021/03/09 08:24:58;;;;;;;6.50;1.80;;;;;;;;;;10332872;28;20237;-80
2021/03/09 08:30:24;;;;;;;6.57;2.07;;;;;;;;;;10347834;28;20216;-80
2021/03/09 08:35:36;;;;;;;7.20;1.90;;;;;;;;;;10339687;28;20225;-79
2021/03/09 08:40:57;;;;;;;6.13;2.00;;;;;;;;;;10340167;28;20212;-79
2021/03/09 08:45:59;;;;;;;7.10;2.27;;;;;;;;;;10327037;28;20332;-79
2021/03/09 08:51:05;;;;;;;4.03;1.90;;;;;;;;;;10339018;28;20221;-79
2021/03/09 08:56:09;;;;;;;5.07;2.00;;;;;;;;;;10337605;28;20709;-80
2021/03/09 09:01:21;;;;;;;3.67;2.07;;;;;;;;;;10339397;28;20217;-80
2021/03/09 09:06:28;;;;;;;3.63;2.10;;;;;;;;;;10336833;28;20264;-79
2021/03/09 09:11:58;;;;;;;6.27;1.70;;;;;;;;;;10331391;28;20220;-80
2021/03/09 09:17:03;;;;;;;3.37;1.40;;;;;;;;;;10331159;28;20212;-80
2021/03/09 09:22:05;;;;;;;4.50;1.30;;;;;;;;;;10336001;28;20245;-79
2021/03/09 09:27:14;;;;;;;3.40;1.40;;;;;;;;;;10333070;28;20236;-80
2021/03/09 09:32:16;;;;;;;3.70;1.63;;;;;;;;;;10332540;28;20229;-80
2021/03/09 09:37:18;;;;;;;2.90;1.67;;;;;;;;;;10337001;28;20217;-79
2021/03/09 09:42:22;;;;;;;3.50;1.70;;;;;;;;;;10328054;28;20517;-79
2021/03/09 09:47:24;;;;;;;4.33;2.10;;;;;;;;;;10337827;28;20233;-79
2021/03/09 09:52:26;;;;;;;3.03;1.70;;;;;;;;;;10329388;28;20732;-80
2021/03/09 09:57:29;;;;;;;3.40;1.70;;;;;;;;;;10334868;28;20295;-79
2021/03/09 10:02:31;;;;;;;3.13;1.70;;;;;;;;;;10325877;28;20240;-79
2021/03/09 10:07:41;;;;;;;3.80;1.90;;;;;;;;;;10339511;28;20252;-79
2021/03/09 10:12:44;;;;;;;4.70;1.43;;;;;;;;;;10336554;28;20220;-80
2021/03/09 10:17:46;;;;;;;3.47;1.57;;;;;;;;;;10330791;28;20229;-80
2021/03/09 10:22:51;;;;;;;2.57;1.60;;;;;;;;;;10336925;28;20386;-79
2021/03/09 10:28:00;;;;;;;2.40;1.60;;;;;;;;;;10328246;28;20237;-79
2021/03/09 10:33:07;;;;;;;3.87;1.80;;;;;;;;;;10336147;28;20221;-80
2021/03/09 10:38:21;;;;;;;4.47;1.73;;;;;;;;;;10330922;28;20228;-81
2021/03/09 10:43:39;;;;;;;3.80;1.90;;;;;;;;;;10328269;28;20214;-80
2021/03/09 10:48:44;;;;;;;3.83;1.80;;;;;;;;;;10326163;28;20259;-80
2021/03/09 10:53:53;;;;;;;5.00;2.10;;;;;;;;;;10334062;28;20220;-80
2021/03/09 10:58:56;;;;;;;5.60;2.30;;;;;;;;;;10343311;28;20582;-80
2021/03/09 11:03:58;;;;;;;4.80;1.70;;;;;;;;;;10336920;28;20531;-80
2021/03/09 11:09:00;;;;;;;3.60;1.30;;;;;;;;;;10330350;28;20221;-79
2021/03/09 11:14:03;;;;;;;3.40;1.50;;;;;;;;;;10331654;28;20220;-80
2021/03/09 11:19:05;;;;;;;2.03;1.40;;;;;;;;;;10336814;28;20791;-80
2021/03/09 11:24:07;;;;;;;3.60;1.83;;;;;;;;;;10330041;28;20264;-79
2021/03/09 11:29:10;;;;;;;2.23;1.40;;;;;;;;;;10339851;28;21036;-80
2021/03/09 11:34:12;;;;;;;4.40;1.80;;;;;;;;;;10330109;28;20213;-80
2021/03/09 11:39:14;;;;;;;5.37;2.00;;;;;;;;;;10339956;28;20409;-80
2021/03/09 11:44:17;;;;;;;3.60;2.03;;;;;;;;;;10333480;28;20239;-80
2021/03/09 11:49:27;;;;;;;3.53;1.60;;;;;;;;;;10341254;28;20212;-81
2021/03/09 11:54:32;;;;;;;2.30;1.67;;;;;;;;;;10345009;28;20219;-80
2021/03/09 11:59:35;;;;;;;2.80;1.60;;;;;;;;;;10326249;28;20216;-80
2021/03/09 12:04:40;;;;;;;4.67;1.50;;;;;;;;;;10336690;28;20256;-79
2021/03/09 12:09:44;;;;;;;2.37;1.60;;;;;;;;;;10342495;28;20615;-78
2021/03/09 12:14:48;;;;;;;2.40;1.83;;;;;;;;;;10336401;28;20239;-79
2021/03/09 12:19:53;;;;;;;2.90;2.20;;;;;;;;;;10345063;28;20217;-80
2021/03/09 12:24:56;;;;;;;4.30;2.30;;;;;;;;;;10340765;28;20247;-80
2021/03/09 12:29:58;;;;;;;6.03;2.50;;;;;;;;;;10343139;28;20220;-80
2021/03/09 12:35:01;;;;;;;3.07;2.30;;;;;;;;;;10338484;28;20237;-81
2021/03/09 12:40:03;;;;;;;5.37;2.87;;;;;;;;;;10335308;28;20217;-81
2021/03/09 12:45:07;;;;;;;5.47;3.43;;;;;;;;;;10341825;28;20784;-81
2021/03/09 12:50:10;;;;;;;4.20;2.50;;;;;;;;;;10334959;28;20214;-80
2021/03/09 12:55:12;;;;;;;4.63;2.60;;;;;;;;;;10338469;28;20217;-80
2021/03/09 13:00:16;;;;;;;5.63;3.00;;;;;;;;;;10337066;28;20209;-81
2021/03/09 13:05:18;;;;;;;5.57;2.73;;;;;;;;;;10336316;28;20244;-79
2021/03/09 13:10:20;;;;;;;6.17;2.80;;;;;;;;;;10336945;28;20235;-80
2021/03/09 13:15:23;;;;;;;5.73;2.63;;;;;;;;;;10339378;28;20235;-80
2021/03/09 13:20:25;;;;;;;5.87;2.67;;;;;;;;;;10332121;28;20299;-80
2021/03/09 13:25:27;;;;;;;5.93;2.70;;;;;;;;;;10326000;28;20242;-79
2021/03/09 13:30:31;;;;;;;5.23;3.30;;;;;;;;;;10341061;28;20244;-79
2021/03/09 13:35:35;;;;;;;5.70;3.53;;;;;;;;;;10333537;28;20323;-79
2021/03/09 13:40:37;;;;;;;6.83;3.90;;;;;;;;;;10330561;28;20327;-80
2021/03/09 13:45:41;;;;;;;10.50;5.30;;;;;;;;;;10330548;28;20237;-81
2021/03/09 13:50:44;;;;;;;11.00;4.80;;;;;;;;;;10330992;28;20240;-79
2021/03/09 13:55:46;;;;;;;10.93;4.67;;;;;;;;;;10334049;28;20716;-79
2021/03/09 14:00:49;;;;;;;9.70;5.30;;;;;;;;;;10332667;28;20224;-79
2021/03/09 14:05:51;;;;;;;8.83;5.03;;;;;;;;;;10332584;28;20243;-79
2021/03/09 14:10:53;;;;;;;7.83;4.60;;;;;;;;;;10325301;28;20213;-80
2021/03/09 14:15:56;;;;;;;7.40;4.67;;;;;;;;;;10324077;28;20213;-80
2021/03/09 14:20:59;;;;;;;8.10;3.90;;;;;;;;;;10328241;28;20244;-79
2021/03/09 14:26:01;;;;;;;12.07;5.27;;;;;;;;;;10333650;28;20251;-80
2021/03/09 14:31:05;;;;;;;8.77;4.40;;;;;;;;;;10330872;28;20221;-79
2021/03/09 14:36:07;;;;;;;6.47;4.43;;;;;;;;;;10332663;28;20570;-79
2021/03/09 14:41:09;;;;;;;11.33;4.57;;;;;;;;;;10331451;28;20235;-79
2021/03/09 14:46:12;;;;;;;11.17;4.97;;;;;;;;;;10333752;28;20240;-78
2021/03/09 14:51:14;;;;;;;9.00;4.53;;;;;;;;;;10324958;28;20640;-79
2021/03/09 14:56:18;;;;;;;8.13;4.93;;;;;;;;;;10328376;28;20233;-79
2021/03/09 15:01:20;;;;;;;8.27;4.60;;;;;;;;;;10330102;28;20247;-80
2021/03/09 15:06:22;;;;;;;10.10;4.90;;;;;;;;;;10325940;28;20243;-79
2021/03/09 15:11:24;;;;;;;7.17;4.67;;;;;;;;;;10334651;28;20528;-77
2021/03/09 15:16:27;;;;;;;10.53;5.10;;;;;;;;;;10339158;28;20208;-79
2021/03/09 15:21:29;;;;;;;10.40;4.77;;;;;;;;;;10329878;28;20220;-79
2021/03/09 15:26:31;;;;;;;10.73;5.10;;;;;;;;;;10325449;28;20251;-80
2021/03/09 15:31:34;;;;;;;12.23;5.30;;;;;;;;;;10330537;28;20594;-78
2021/03/09 15:36:36;;;;;;;10.37;5.23;;;;;;;;;;10327479;28;20240;-79
2021/03/09 15:41:39;;;;;;;9.83;5.20;;;;;;;;;;10334448;28;20213;-79
2021/03/09 15:46:42;;;;;;;11.23;7.07;;;;;;;;;;10329281;28;20239;-78
2021/03/09 15:51:44;;;;;;;9.97;5.30;;;;;;;;;;10329544;28;20312;-78
2021/03/09 15:56:46;;;;;;;9.67;4.60;;;;;;;;;;10329412;28;20216;-79
2021/03/09 16:01:49;;;;;;;8.30;4.60;;;;;;;;;;10327643;28;22042;-79
2021/03/09 16:06:52;;;;;;;7.53;4.47;;;;;;;;;;10323100;28;20329;-78
2021/03/09 16:11:54;;;;;;;6.80;4.00;;;;;;;;;;10335268;28;20210;-79
2021/03/09 16:16:56;;;;;;;11.93;5.13;;;;;;;;;;10344839;28;20228;-79
2021/03/09 16:21:59;;;;;;;7.70;4.60;;;;;;;;;;10343541;28;20813;-79
2021/03/09 16:27:01;;;;;;;7.97;5.00;;;;;;;;;;10337995;28;20331;-79
2021/03/09 16:32:04;;;;;;;8.13;5.43;;;;;;;;;;10333425;28;20220;-78
2021/03/09 16:37:07;;;;;;;10.03;6.57;;;;;;;;;;10338261;28;20209;-80
2021/03/09 16:42:09;;;;;;;15.03;7.87;;;;;;;;;;10337027;28;20244;-80
2021/03/09 16:47:12;;;;;;;12.90;8.10;;;;;;;;;;10338161;28;20619;-79
2021/03/09 16:52:14;;;;;;;15.90;8.70;;;;;;;;;;10337051;28;20217;-80
2021/03/09 16:57:16;;;;;;;17.30;8.63;;;;;;;;;;10336675;28;20225;-80
2021/03/09 17:02:25;;;;;;;16.63;9.20;;;;;;;;;;10330264;28;20248;-80
2021/03/09 17:07:29;;;;;;;22.33;10.37;;;;;;;;;;10336286;28;20725;-80
2021/03/09 17:12:32;;;;;;;21.60;11.33;;;;;;;;;;10334391;28;20220;-81
2021/03/09 17:17:52;;;;;;;28.13;14.60;;;;;;;;;;10334347;28;20685;-82
2021/03/09 17:22:54;;;;;;;23.07;12.97;;;;;;;;;;10336340;28;20316;-82
2021/03/09 17:27:56;;;;;;;22.60;12.47;;;;;;;;;;10334322;28;20698;-78
2021/03/09 17:33:06;;;;;;;23.33;12.80;;;;;;;;;;10325460;28;20216;-78
2021/03/09 17:38:12;;;;;;;25.40;13.77;;;;;;;;;;10318460;28;20294;-79
2021/03/09 17:43:14;;;;;;;25.13;13.27;;;;;;;;;;10327820;28;20689;-80
2021/03/09 17:48:20;;;;;;;28.50;13.83;;;;;;;;;;10325551;28;21634;-77
2021/03/09 17:53:22;;;;;;;24.10;13.73;;;;;;;;;;10328332;28;20438;-79
2021/03/09 17:58:24;;;;;;;25.53;13.67;;;;;;;;;;10335710;28;20761;-79
2021/03/09 18:03:27;;;;;;;22.47;13.27;;;;;;;;;;10320802;28;20262;-78
2021/03/09 18:08:29;;;;;;;27.97;15.30;;;;;;;;;;10321449;28;20253;-77
2021/03/09 18:13:31;;;;;;;25.53;14.47;;;;;;;;;;10318077;28;20227;-77
2021/03/09 18:18:34;;;;;;;24.53;13.20;;;;;;;;;;10327785;28;20223;-78
2021/03/09 18:23:36;;;;;;;25.07;13.33;;;;;;;;;;10316713;28;20213;-77
2021/03/09 18:28:38;;;;;;;24.10;13.83;;;;;;;;;;10324102;28;20383;-78
2021/03/09 18:33:41;;;;;;;22.53;13.50;;;;;;;;;;10324873;28;20344;-78
2021/03/09 18:38:43;;;;;;;23.33;13.23;;;;;;;;;;10318265;28;20217;-78
2021/03/09 18:43:45;;;;;;;26.87;14.53;;;;;;;;;;10319973;28;20223;-77
2021/03/09 18:48:48;;;;;;;25.27;14.50;;;;;;;;;;10321671;28;20312;-78
2021/03/09 18:53:54;;;;;;;28.23;15.43;;;;;;;;;;10321552;28;20213;-78
2021/03/09 18:58:56;;;;;;;27.17;14.77;;;;;;;;;;10325598;28;20219;-78
2021/03/09 19:03:59;;;;;;;26.87;14.60;;;;;;;;;;10327404;28;20248;-78
2021/03/09 19:09:01;;;;;;;23.37;13.53;;;;;;;;;;10320611;28;20236;-78
2021/03/09 19:14:03;;;;;;;24.87;14.13;;;;;;;;;;10322242;28;20225;-78
2021/03/09 19:19:06;;;;;;;23.50;13.03;;;;;;;;;;10321884;28;20227;-78
2021/03/09 19:24:08;;;;;;;22.97;11.93;;;;;;;;;;10328415;28;20232;-78
2021/03/09 19:29:10;;;;;;;17.33;9.73;;;;;;;;;;10317779;28;20239;-78
2021/03/09 19:34:13;;;;;;;13.77;8.03;;;;;;;;;;10329212;28;20220;-77
2021/03/09 19:39:15;;;;;;;16.23;9.07;;;;;;;;;;10321561;28;21276;-78
2021/03/09 19:44:17;;;;;;;14.13;8.83;;;;;;;;;;10324875;28;20209;-78
2021/03/09 19:49:20;;;;;;;15.93;7.63;;;;;;;;;;10327437;28;20221;-79
2021/03/09 19:54:22;;;;;;;10.93;6.47;;;;;;;;;;10330711;28;20257;-79
2021/03/09 19:59:26;;;;;;;10.43;5.83;;;;;;;;;;10329918;28;20225;-78
2021/03/09 20:04:33;;;;;;;9.50;5.87;;;;;;;;;;10327682;28;20237;-77
2021/03/09 20:09:35;;;;;;;10.37;5.60;;;;;;;;;;10332559;28;20328;-77
2021/03/09 20:14:38;;;;;;;9.40;5.37;;;;;;;;;;10323555;28;20231;-79
2021/03/09 20:19:41;;;;;;;8.63;4.83;;;;;;;;;;10328238;28;20951;-79
2021/03/09 20:24:43;;;;;;;7.83;4.40;;;;;;;;;;10323142;28;20252;-78
2021/03/09 20:29:51;;;;;;;8.03;4.20;;;;;;;;;;10322115;28;20213;-78
2021/03/09 20:34:58;;;;;;;5.57;3.70;;;;;;;;;;10332774;28;20212;-79
2021/03/09 20:40:10;;;;;;;6.63;3.83;;;;;;;;;;10327317;28;20226;-79
2021/03/09 20:45:22;;;;;;;4.70;3.40;;;;;;;;;;10327442;28;20717;-77
2021/03/09 20:50:39;;;;;;;6.20;3.83;;;;;;;;;;10331107;28;21122;-79
2021/03/09 20:55:43;;;;;;;5.73;3.83;;;;;;;;;;10331869;28;20216;-79
2021/03/09 21:00:47;;;;;;;7.20;3.37;;;;;;;;;;10336403;28;20260;-79
2021/03/09 21:05:57;;;;;;;5.30;3.30;;;;;;;;;;10331246;28;20245;-79
2021/03/09 21:11:00;;;;;;;4.70;3.50;;;;;;;;;;10331692;28;21087;-78
2021/03/09 21:16:02;;;;;;;5.93;3.20;;;;;;;;;;10330767;28;20244;-78
2021/03/09 21:21:25;;;;;;;5.10;3.50;;;;;;;;;;10331578;28;20222;-78
2021/03/09 21:26:27;;;;;;;6.27;3.67;;;;;;;;;;10326901;28;20247;-77
2021/03/09 21:31:29;;;;;;;5.03;3.60;;;;;;;;;;10329096;28;20319;-78
2021/03/09 21:36:32;;;;;;;6.97;4.00;;;;;;;;;;10327464;28;20221;-78
2021/03/09 21:41:34;;;;;;;5.63;3.80;;;;;;;;;;10327895;28;20217;-78
2021/03/09 21:46:35;;;;;;;7.63;4.43;;;;;;;;;;10327953;28;20242;-79
2021/03/09 21:51:39;;;;;;;9.07;5.13;;;;;;;;;;10328577;28;20312;-77
2021/03/09 21:56:41;;;;;;;8.67;4.50;;;;;;;;;;10330977;28;20236;-78
2021/03/09 22:01:43;;;;;;;6.97;4.90;;;;;;;;;;10329043;28;20239;-77
2021/03/09 22:06:46;;;;;;;7.17;4.93;;;;;;;;;;10328874;28;20264;-78
2021/03/09 22:11:48;;;;;;;6.03;3.90;;;;;;;;;;10327509;28;20228;-78
2021/03/09 22:16:50;;;;;;;7.30;4.77;;;;;;;;;;10330428;28;20221;-78
2021/03/09 22:21:52;;;;;;;6.40;4.37;;;;;;;;;;10331426;28;20228;-78
2021/03/09 22:26:54;;;;;;;8.20;4.43;;;;;;;;;;10326417;28;20240;-79
2021/03/09 22:31:57;;;;;;;6.27;4.20;;;;;;;;;;10324505;28;20328;-78
2021/03/09 22:37:00;;;;;;;6.00;4.20;;;;;;;;;;10328125;28;20213;-78
2021/03/09 22:42:02;;;;;;;7.60;4.67;;;;;;;;;;10327421;28;20221;-78
2021/03/09 22:47:03;;;;;;;6.33;4.37;;;;;;;;;;10334332;28;20248;-78
2021/03/09 22:52:06;;;;;;;8.70;4.57;;;;;;;;;;10329262;28;20213;-78
2021/03/09 22:57:08;;;;;;;6.57;4.17;;;;;;;;;;10334144;28;20737;-78
2021/03/09 23:02:10;;;;;;;7.57;4.50;;;;;;;;;;10334781;28;20229;-78
2021/03/09 23:07:14;;;;;;;6.20;3.90;;;;;;;;;;10329534;28;20240;-78
2021/03/09 23:12:15;;;;;;;7.27;4.20;;;;;;;;;;10329162;28;20209;-77
2021/03/09 23:17:17;;;;;;;9.93;4.50;;;;;;;;;;10330918;28;20233;-78
2021/03/09 23:22:20;;;;;;;6.57;4.40;;;;;;;;;;10330972;28;20219;-79
2021/03/09 23:27:22;;;;;;;5.33;4.10;;;;;;;;;;10332296;28;20853;-79
2021/03/09 23:32:24;;;;;;;5.60;3.80;;;;;;;;;;10331910;28;20221;-79
2021/03/09 23:37:27;;;;;;;6.77;4.53;;;;;;;;;;10331925;28;20227;-79
2021/03/09 23:42:29;;;;;;;7.43;4.73;;;;;;;;;;10326450;28;20221;-79
2021/03/09 23:47:31;;;;;;;9.33;4.20;;;;;;;;;;10333943;28;21004;-79
2021/03/09 23:52:37;;;;;;;6.80;4.83;;;;;;;;;;10327163;28;20705;-79
2021/03/09 23:57:47;;;;;;;8.93;4.40;;;;;;;;;;10331952;28;20223;-79
